Time;durP1;ratioP1;P1;durP2;ratioP2;P2;SDS_P1;SDS_P2;PMS_P1;PMS_P2;Temp;Humidity;BMP_temperature;BMP_pressure;BME280_temperature;BME280_humidity;BME280_pressure;Samples;Min_cycle;Max_cycle;Signal;HPM_P1;HPM_P2
2022/03/09 00:00:19;;;;;;;25.73;12.23;;;;;;;-0.64;67.12;101990.28;5001898;28;20037;-69
2022/03/09 00:02:44;;;;;;;24.38;11.55;;;;;;;-0.66;67.38;101986.13;4986697;28;20081;-69
2022/03/09 00:05:10;;;;;;;35.90;13.57;;;;;;;-0.68;67.79;101983.66;5001044;28;20030;-73
2022/03/09 00:07:36;;;;;;;25.20;11.65;;;;;;;-0.72;67.99;101987.16;5003960;28;20588;-68
2022/03/09 00:10:02;;;;;;;23.17;12.95;;;;;;;-0.73;68.37;101995.69;4983711;28;20046;-69
2022/03/09 00:12:28;;;;;;;23.55;12.07;;;;;;;-0.73;68.04;101992.34;5008848;28;20041;-68
2022/03/09 00:14:53;;;;;;;22.73;11.00;;;;;;;-0.72;67.69;101986.34;4988174;28;20057;-69
2022/03/09 00:17:18;;;;;;;20.20;10.20;;;;;;;-0.62;66.04;101987.69;4981147;28;20033;-69
2022/03/09 00:19:44;;;;;;;25.08;11.10;;;;;;;-0.65;66.44;101986.06;4989526;28;20400;-68
2022/03/09 00:22:09;;;;;;;19.85;9.18;;;;;;;-0.51;65.59;101994.94;5002096;28;20061;-69
2022/03/09 00:24:35;;;;;;;23.58;9.70;;;;;;;-0.51;65.00;101989.84;4980480;28;20084;-69
2022/03/09 00:27:01;;;;;;;30.58;11.20;;;;;;;-0.29;63.09;101988.16;5007410;28;20598;-70
2022/03/09 00:29:27;;;;;;;21.17;9.10;;;;;;;-0.27;63.25;101991.47;4987423;28;20046;-68
2022/03/09 00:31:53;;;;;;;18.55;9.38;;;;;;;-0.26;63.42;101993.16;4988725;28;20030;-68
2022/03/09 00:34:19;;;;;;;19.58;8.73;;;;;;;-0.01;61.60;101999.88;5003154;28;20037;-68
2022/03/09 00:36:45;;;;;;;21.55;9.65;;;;;;;-0.04;61.71;102005.94;4982309;28;20056;-69
2022/03/09 00:39:10;;;;;;;25.05;9.13;;;;;;;0.06;61.06;102008.13;5004243;28;20061;-69
2022/03/09 00:41:36;;;;;;;21.00;9.23;;;;;;;0.06;60.93;102003.03;4985816;28;20193;-69
2022/03/09 00:44:03;;;;;;;18.23;8.82;;;;;;;0.06;61.65;102001.31;4985805;28;20041;-70
2022/03/09 00:46:28;;;;;;;21.75;9.13;;;;;;;0.23;60.03;101997.28;4960858;28;20520;-69
2022/03/09 00:48:54;;;;;;;18.02;8.88;;;;;;;0.42;59.49;101993.13;5002410;28;20113;-69
2022/03/09 00:51:20;;;;;;;15.85;8.60;;;;;;;0.26;59.75;101994.59;4988730;28;20060;-69
2022/03/09 00:53:45;;;;;;;20.52;8.90;;;;;;;0.31;59.52;101998.63;5002834;28;20026;-68
2022/03/09 00:56:11;;;;;;;20.23;9.13;;;;;;;0.20;60.01;101995.69;4988635;28;20032;-71
2022/03/09 00:58:36;;;;;;;21.45;9.23;;;;;;;0.11;60.55;101993.47;4989626;28;20045;-69
2022/03/09 01:01:02;;;;;;;19.77;8.45;;;;;;;0.14;60.33;102001.84;4969170;28;20041;-68
2022/03/09 01:03:28;;;;;;;17.35;8.70;;;;;;;0.02;61.01;101999.78;4995643;28;20116;-70
2022/03/09 01:05:55;;;;;;;19.42;9.27;;;;;;;-0.07;61.94;102003.50;4985070;28;20037;-69
2022/03/09 01:08:20;;;;;;;19.85;8.85;;;;;;;-0.15;62.73;102004.66;4981655;28;20445;-69
2022/03/09 01:10:46;;;;;;;20.73;8.95;;;;;;;-0.22;63.08;102012.56;5001097;28;20067;-69
2022/03/09 01:13:11;;;;;;;18.98;8.80;;;;;;;-0.27;62.63;102001.69;4987641;28;20399;-69
2022/03/09 01:15:37;;;;;;;18.45;8.05;;;;;;;-0.11;61.41;102006.25;5006325;28;20345;-69
2022/03/09 01:18:03;;;;;;;20.17;8.85;;;;;;;-0.13;61.76;102008.00;5003148;28;20084;-69
2022/03/09 01:20:28;;;;;;;18.65;8.52;;;;;;;-0.12;61.40;102005.38;4989693;28;20026;-69
2022/03/09 01:22:53;;;;;;;19.05;9.65;;;;;;;-0.21;62.36;102003.16;5007233;28;20030;-69
2022/03/09 01:25:19;;;;;;;22.40;10.23;;;;;;;-0.07;61.22;102011.16;5009136;28;20534;-69
2022/03/09 01:27:45;;;;;;;20.88;9.38;;;;;;;0.02;60.75;102007.44;5010873;28;20022;-69
2022/03/09 01:30:10;;;;;;;24.40;10.18;;;;;;;0.12;60.16;101997.72;5009079;28;20174;-69
2022/03/09 01:32:36;;;;;;;22.55;9.73;;;;;;;0.05;60.43;102006.47;4987768;28;20064;-70
2022/03/09 01:35:03;;;;;;;17.77;8.48;;;;;;;0.07;60.56;102000.41;4993224;28;20029;-71
2022/03/09 01:37:28;;;;;;;23.92;9.52;;;;;;;0.16;59.95;101997.50;4988099;28;20030;-70
2022/03/09 01:39:54;;;;;;;19.20;9.50;;;;;;;0.26;59.67;102000.53;4987057;28;20428;-70
2022/03/09 01:42:19;;;;;;;16.80;9.48;;;;;;;0.31;59.78;101990.16;4992552;28;20041;-69
2022/03/09 01:44:45;;;;;;;23.40;8.95;;;;;;;0.37;59.27;101993.28;4988038;28;20033;-68
2022/03/09 01:47:10;;;;;;;19.60;9.38;;;;;;;0.67;58.85;101997.25;4965586;28;20030;-69
2022/03/09 01:49:36;;;;;;;19.10;9.02;;;;;;;0.67;58.18;101987.03;5005679;28;20030;-70
2022/03/09 01:52:02;;;;;;;20.70;9.77;;;;;;;0.73;58.42;101987.59;5008083;28;20037;-69
2022/03/09 01:54:29;;;;;;;24.23;10.35;;;;;;;0.71;57.94;101991.09;4996896;28;20061;-69
2022/03/09 01:56:55;;;;;;;18.13;8.55;;;;;;;0.72;58.36;101991.06;5024816;23;20050;-70
2022/03/09 01:59:21;;;;;;;19.35;9.02;;;;;;;0.70;58.40;101986.91;5027291;28;20140;-69
2022/03/09 02:01:47;;;;;;;17.98;8.82;;;;;;;0.75;58.17;101979.88;5045300;28;20653;-70
2022/03/09 02:04:13;;;;;;;17.95;9.00;;;;;;;0.73;58.44;101979.09;5045840;28;20083;-70
2022/03/09 02:06:39;;;;;;;19.88;9.23;;;;;;;0.69;58.17;101972.47;5045808;28;20064;-69
2022/03/09 02:11:51;;;;;;;20.55;9.18;;;;;;;0.72;58.22;101972.34;5026910;28;20030;-69
2022/03/09 02:14:27;;;;;;;20.08;8.57;;;;;;;0.67;58.30;101980.19;5028928;28;20048;-70
2022/03/09 02:16:54;;;;;;;22.02;8.63;;;;;;;0.79;57.99;101978.84;5026646;28;20044;-70
2022/03/09 02:19:20;;;;;;;19.17;8.93;;;;;;;0.74;58.14;101979.03;5024582;28;20498;-70
2022/03/09 02:21:47;;;;;;;21.52;9.02;;;;;;;0.77;57.97;101973.81;5028906;28;20033;-69
2022/03/09 02:24:13;;;;;;;20.38;8.27;;;;;;;0.75;58.09;101972.22;5027764;28;20120;-69
2022/03/09 02:26:38;;;;;;;21.38;9.57;;;;;;;0.78;58.26;101972.91;5028972;28;20144;-70
2022/03/09 02:29:04;;;;;;;18.92;8.60;;;;;;;0.78;57.68;101972.09;5026367;28;20467;-69
2022/03/09 02:31:30;;;;;;;17.38;8.25;;;;;;;0.86;58.03;101967.47;5011086;28;20046;-70
2022/03/09 02:33:56;;;;;;;17.35;8.38;;;;;;;0.86;57.88;101972.59;5010354;28;20080;-69
2022/03/09 02:36:21;;;;;;;19.05;8.43;;;;;;;0.87;57.83;101973.44;5031816;28;20072;-70
2022/03/09 02:38:46;;;;;;;16.15;8.13;;;;;;;0.82;57.47;101977.91;5027708;28;20140;-70
2022/03/09 02:41:12;;;;;;;18.67;8.45;;;;;;;0.85;57.90;101970.94;5011556;28;20044;-70
2022/03/09 02:43:38;;;;;;;23.33;8.55;;;;;;;0.81;58.38;101971.13;5009378;28;20541;-70
2022/03/09 02:46:03;;;;;;;18.85;8.48;;;;;;;0.69;58.23;101965.63;5009615;28;20033;-69
2022/03/09 02:48:29;;;;;;;18.45;8.52;;;;;;;0.74;58.19;101965.47;5024704;28;20037;-69
2022/03/09 02:50:54;;;;;;;19.92;7.85;;;;;;;0.64;58.36;101959.06;5010506;28;20083;-70
2022/03/09 02:53:20;;;;;;;19.55;8.63;;;;;;;0.79;58.17;101963.53;5022728;28;20083;-69
2022/03/09 02:55:47;;;;;;;16.80;9.02;;;;;;;0.66;58.07;101962.38;5026517;28;20080;-69
2022/03/09 02:58:13;;;;;;;22.60;8.70;;;;;;;0.71;58.42;101960.47;5011076;28;20036;-70
2022/03/09 03:00:38;;;;;;;20.58;8.85;;;;;;;0.60;58.79;101963.47;5011289;28;20126;-70
2022/03/09 03:03:04;;;;;;;17.15;8.45;;;;;;;0.74;58.17;101958.63;5012502;28;20040;-70
2022/03/09 03:05:29;;;;;;;17.45;8.77;;;;;;;0.61;59.02;101957.47;5006863;28;20495;-69
2022/03/09 03:07:54;;;;;;;16.95;8.35;;;;;;;0.67;58.72;101964.03;5024774;28;20033;-70
2022/03/09 03:10:20;;;;;;;21.98;8.20;;;;;;;0.77;58.01;101960.19;5008948;28;20029;-70
2022/03/09 03:12:45;;;;;;;19.92;8.52;;;;;;;0.74;58.24;101958.63;5010760;28;20597;-70
2022/03/09 03:15:11;;;;;;;17.05;7.95;;;;;;;0.65;58.71;101960.72;5021843;28;20578;-69
2022/03/09 03:17:37;;;;;;;15.55;7.68;;;;;;;0.70;58.36;101956.28;5020207;28;20030;-69
2022/03/09 03:20:04;;;;;;;16.55;8.10;;;;;;;0.70;58.48;101951.16;5019619;28;20036;-70
2022/03/09 03:22:30;;;;;;;19.83;8.20;;;;;;;0.69;58.17;101957.16;5023054;28;20040;-70
2022/03/09 03:24:55;;;;;;;20.13;8.85;;;;;;;0.71;58.08;101960.47;5008057;28;20033;-69
2022/03/09 03:27:21;;;;;;;17.38;8.35;;;;;;;0.72;58.35;101959.59;5020698;28;20041;-70
2022/03/09 03:29:46;;;;;;;16.25;7.85;;;;;;;0.72;58.64;101954.47;5023916;28;20035;-70
2022/03/09 03:32:11;;;;;;;19.30;8.68;;;;;;;0.59;58.75;101951.59;5005864;28;20033;-69
2022/03/09 03:34:37;;;;;;;17.45;8.23;;;;;;;0.47;59.60;101947.84;5022022;28;20037;-70
2022/03/09 03:37:03;;;;;;;20.08;8.05;;;;;;;0.33;59.73;101956.03;5028455;28;20064;-70
2022/03/09 03:39:28;;;;;;;17.83;8.07;;;;;;;0.45;59.77;101954.69;5026592;28;20100;-70
2022/03/09 03:41:54;;;;;;;24.70;8.00;;;;;;;0.47;59.62;101950.38;5009155;28;20111;-70
2022/03/09 03:44:19;;;;;;;17.00;8.27;;;;;;;0.46;59.21;101940.22;5008680;28;20037;-70
2022/03/09 03:46:45;;;;;;;15.57;8.48;;;;;;;0.44;59.53;101932.63;5006210;28;20478;-70
2022/03/09 03:49:10;;;;;;;16.27;8.25;;;;;;;0.34;59.87;101937.28;5026722;28;20037;-70
2022/03/09 03:51:36;;;;;;;21.15;8.50;;;;;;;0.33;59.41;101939.91;5003111;28;20076;-70
2022/03/09 03:54:01;;;;;;;22.38;8.15;;;;;;;0.32;59.55;101938.22;5007797;28;20036;-69
2022/03/09 03:56:27;;;;;;;19.65;8.50;;;;;;;0.34;59.73;101936.44;4988771;28;20065;-70
2022/03/09 03:58:52;;;;;;;18.15;8.23;;;;;;;0.31;59.28;101939.13;5023521;28;20072;-70
2022/03/09 04:01:18;;;;;;;13.70;7.13;;;;;;;0.29;59.57;101939.19;5027158;28;20091;-70
2022/03/09 04:03:43;;;;;;;18.85;8.40;;;;;;;0.38;59.29;101943.09;5002885;28;20510;-70
2022/03/09 04:06:09;;;;;;;16.75;8.18;;;;;;;0.30;59.07;101935.75;5025803;28;20044;-70
2022/03/09 04:08:34;;;;;;;21.75;7.90;;;;;;;0.33;59.39;101939.91;5023385;28;20129;-70
2022/03/09 04:11:00;;;;;;;21.10;8.43;;;;;;;0.34;59.28;101942.38;4994880;28;20040;-69
2022/03/09 04:13:25;;;;;;;17.90;8.15;;;;;;;0.33;58.48;101953.47;5021148;28;20407;-69
2022/03/09 04:15:51;;;;;;;16.90;7.70;;;;;;;0.21;59.30;101948.03;5008661;28;20025;-70
2022/03/09 04:18:16;;;;;;;22.13;8.75;;;;;;;0.25;59.25;101954.69;5026458;28;20037;-70
2022/03/09 04:20:42;;;;;;;21.27;8.50;;;;;;;0.22;59.23;101952.25;5030240;28;20032;-69
2022/03/09 04:23:09;;;;;;;16.27;7.90;;;;;;;0.25;59.29;101954.69;4997084;28;20025;-70
2022/03/09 04:25:37;;;;;;;18.38;8.88;;;;;;;0.14;59.34;101950.81;5007064;28;20038;-70
2022/03/09 04:28:03;;;;;;;19.10;9.20;;;;;;;0.22;59.12;101949.69;5006390;28;20041;-70
2022/03/09 04:30:29;;;;;;;14.48;7.70;;;;;;;0.14;59.52;101950.00;5007222;28;20384;-70
2022/03/09 04:32:55;;;;;;;16.38;8.23;;;;;;;0.18;59.75;101949.00;5006814;28;20037;-69
2022/03/09 04:35:21;;;;;;;16.08;7.40;;;;;;;0.21;59.06;101950.56;4994848;28;20065;-70
2022/03/09 04:37:46;;;;;;;22.17;8.02;;;;;;;0.21;59.29;101950.56;5009522;28;20506;-70
2022/03/09 04:40:12;;;;;;;21.27;8.93;;;;;;;0.22;59.55;101950.53;4994886;28;20033;-70
2022/03/09 04:42:38;;;;;;;14.10;7.50;;;;;;;0.12;59.64;101952.59;5026035;28;20040;-70
2022/03/09 04:45:04;;;;;;;20.48;8.63;;;;;;;0.10;59.67;101954.41;5027559;28;20025;-69
2022/03/09 04:47:30;;;;;;;17.92;7.28;;;;;;;0.12;59.63;101951.78;5008422;28;20407;-69
2022/03/09 04:49:55;;;;;;;14.88;8.25;;;;;;;0.10;59.92;101956.13;5021805;28;20033;-70
2022/03/09 04:52:21;;;;;;;19.10;8.75;;;;;;;0.18;59.46;101954.09;5007924;28;20041;-70
2022/03/09 04:54:47;;;;;;;16.80;8.35;;;;;;;0.20;59.64;101949.75;5010316;28;20017;-69
2022/03/09 04:57:12;;;;;;;19.42;9.40;;;;;;;0.08;60.00;101953.63;5021142;28;20026;-70
2022/03/09 04:59:38;;;;;;;22.15;8.18;;;;;;;0.10;59.84;101956.13;5008017;28;20041;-70
2022/03/09 05:02:03;;;;;;;15.68;8.15;;;;;;;0.08;60.27;101951.06;5005922;28;20542;-69
2022/03/09 05:04:29;;;;;;;18.63;8.85;;;;;;;-0.08;60.48;101952.56;5022581;28;20033;-69
2022/03/09 05:06:55;;;;;;;15.13;8.30;;;;;;;0.04;60.17;101956.34;5026548;28;20022;-70
2022/03/09 05:09:21;;;;;;;20.52;9.20;;;;;;;-0.02;60.31;101959.97;5017420;28;20034;-69
2022/03/09 05:11:46;;;;;;;20.13;8.60;;;;;;;-0.04;60.61;101961.75;5009327;28;20029;-69
2022/03/09 05:14:12;;;;;;;18.05;8.63;;;;;;;0.03;59.99;101958.06;5026017;28;20041;-70
2022/03/09 05:16:37;;;;;;;17.98;8.55;;;;;;;-0.02;60.15;101954.84;5022408;28;20131;-70
2022/03/09 05:19:04;;;;;;;17.33;8.13;;;;;;;-0.03;60.20;101955.75;5024839;28;20029;-70
2022/03/09 05:21:29;;;;;;;22.35;7.88;;;;;;;-0.02;60.13;101960.81;5023989;28;20048;-70
2022/03/09 05:23:55;;;;;;;19.77;8.65;;;;;;;-0.12;60.35;101966.31;5005510;28;20040;-70
2022/03/09 05:26:20;;;;;;;15.63;7.90;;;;;;;-0.04;60.08;101961.75;5023976;28;20446;-70
2022/03/09 05:28:46;;;;;;;21.90;8.07;;;;;;;-0.16;60.60;101959.69;5026061;28;20025;-70
2022/03/09 05:31:11;;;;;;;16.75;7.82;;;;;;;-0.09;60.69;101961.94;5021230;28;20041;-69
2022/03/09 05:33:36;;;;;;;21.05;8.18;;;;;;;-0.14;60.83;101968.09;4990881;28;20029;-70
2022/03/09 05:36:02;;;;;;;17.83;8.27;;;;;;;-0.17;60.92;101968.19;5024262;28;20435;-69
2022/03/09 05:38:27;;;;;;;15.65;7.80;;;;;;;-0.15;60.62;101974.91;5023689;28;20056;-69
2022/03/09 05:40:53;;;;;;;17.65;7.95;;;;;;;-0.11;60.83;101976.47;5025921;28;20811;-70
2022/03/09 05:43:18;;;;;;;20.83;9.07;;;;;;;-0.24;61.26;101982.91;5027231;28;20033;-69
2022/03/09 05:45:44;;;;;;;19.50;8.30;;;;;;;-0.25;61.32;101986.34;5024102;28;20703;-70
2022/03/09 05:48:09;;;;;;;15.10;6.68;;;;;;;-0.29;61.38;101984.78;5020877;28;20053;-70
2022/03/09 05:50:36;;;;;;;16.35;8.98;;;;;;;-0.29;61.23;101983.06;5004425;28;20038;-69
2022/03/09 05:53:01;;;;;;;16.48;8.32;;;;;;;-0.33;61.60;101985.78;4989223;28;20032;-70
2022/03/09 05:55:26;;;;;;;23.60;9.07;;;;;;;-0.37;61.48;101987.63;5021799;28;20399;-70
2022/03/09 05:57:52;;;;;;;18.35;8.18;;;;;;;-0.50;61.74;101988.97;5007822;28;20056;-69
2022/03/09 06:00:17;;;;;;;20.55;9.13;;;;;;;-0.57;62.05;101990.88;5023382;28;20053;-70
2022/03/09 06:02:43;;;;;;;18.40;8.85;;;;;;;-0.56;62.26;101990.00;5028262;28;20083;-70
2022/03/09 06:05:09;;;;;;;19.52;9.85;;;;;;;-0.54;61.75;101989.97;5027311;28;20040;-69
2022/03/09 06:07:35;;;;;;;20.02;8.57;;;;;;;-0.41;61.25;101986.09;5024438;28;20038;-69
2022/03/09 06:10:01;;;;;;;21.08;8.80;;;;;;;-0.42;61.17;101986.94;4998496;28;20523;-69
2022/03/09 06:12:26;;;;;;;21.08;8.95;;;;;;;-0.59;61.31;101993.47;5010382;28;20033;-70
2022/03/09 06:14:52;;;;;;;19.27;9.05;;;;;;;-0.41;61.36;101994.56;5008482;28;20400;-69
2022/03/09 06:17:17;;;;;;;20.40;9.25;;;;;;;-0.32;60.45;101993.41;5012818;28;20024;-70
2022/03/09 06:19:44;;;;;;;19.45;9.60;;;;;;;-0.37;61.10;101995.28;5011792;28;20053;-70
2022/03/09 06:22:09;;;;;;;21.40;9.65;;;;;;;-0.45;60.95;101999.81;5023757;28;20048;-69
2022/03/09 06:24:35;;;;;;;20.45;10.80;;;;;;;-0.41;60.88;102006.47;4990531;28;20036;-70
2022/03/09 06:27:00;;;;;;;17.50;9.30;;;;;;;-0.50;61.58;102007.63;5031744;28;20036;-69
2022/03/09 06:29:26;;;;;;;19.05;9.43;;;;;;;-0.37;61.89;102017.41;5008466;28;20052;-69
2022/03/09 06:31:52;;;;;;;19.35;8.65;;;;;;;-0.34;61.62;102019.81;5012986;28;20040;-70
2022/03/09 06:34:17;;;;;;;25.67;9.85;;;;;;;-0.39;61.54;102009.78;5009152;28;20034;-70
2022/03/09 06:36:44;;;;;;;20.77;8.60;;;;;;;-0.25;60.78;102010.09;5028363;28;20487;-70
2022/03/09 06:39:14;;;;;;;15.82;7.72;;;;;;;-0.16;61.03;102014.03;5011656;28;20041;-70
2022/03/09 06:41:41;;;;;;;16.50;7.75;;;;;;;-0.23;60.68;102015.16;5027704;28;20387;-70
2022/03/09 06:44:07;;;;;;;16.60;8.90;;;;;;;-0.26;60.25;102015.28;5008196;28;20037;-70
2022/03/09 06:46:32;;;;;;;17.58;9.45;;;;;;;-0.28;60.71;102017.88;4994417;28;20036;-70
2022/03/09 06:48:58;;;;;;;17.73;9.23;;;;;;;-0.10;59.66;102020.63;5008852;28;20484;-70
2022/03/09 06:51:23;;;;;;;19.95;9.05;;;;;;;-0.07;60.08;102025.63;5025339;28;20057;-70
2022/03/09 06:53:49;;;;;;;17.13;8.65;;;;;;;0.00;59.58;102016.88;5027625;28;20123;-70
2022/03/09 06:56:16;;;;;;;17.38;9.25;;;;;;;-0.03;59.90;102019.53;5009701;28;20095;-70
2022/03/09 06:58:41;;;;;;;23.42;8.98;;;;;;;-0.06;60.11;102019.63;5026641;28;20112;-69
2022/03/09 07:01:07;;;;;;;28.80;8.70;;;;;;;0.23;59.28;102022.78;5009436;28;20029;-70
2022/03/09 07:03:32;;;;;;;17.50;7.88;;;;;;;0.66;57.60;102023.66;5021644;28;20506;-70
2022/03/09 07:05:58;;;;;;;21.20;8.77;;;;;;;1.00;56.75;102018.00;5010601;28;20526;-70
2022/03/09 07:08:23;;;;;;;18.48;8.68;;;;;;;1.48;55.81;102021.06;5008714;28;20033;-69
2022/03/09 07:10:50;;;;;;;23.42;9.25;;;;;;;1.98;54.17;102022.25;5010317;28;21939;-70
2022/03/09 07:13:15;;;;;;;20.50;8.93;;;;;;;2.36;52.90;102014.53;5025538;28;20067;-70
2022/03/09 07:15:40;;;;;;;18.77;7.80;;;;;;;2.58;51.66;102016.88;5030151;28;20034;-70
2022/03/09 07:18:06;;;;;;;21.67;7.45;;;;;;;2.91;50.72;102014.41;5023471;28;20026;-70
2022/03/09 07:20:31;;;;;;;21.23;7.97;;;;;;;3.40;49.54;102018.78;5010715;28;20085;-70
2022/03/09 07:22:58;;;;;;;17.85;8.02;;;;;;;3.54;49.16;102018.88;5007904;28;20400;-70
2022/03/09 07:25:23;;;;;;;26.90;8.13;;;;;;;3.63;48.60;102026.09;5026199;28;20038;-70
2022/03/09 07:27:49;;;;;;;17.33;7.85;;;;;;;4.07;47.59;102017.75;5023905;28;20033;-70
2022/03/09 07:30:15;;;;;;;18.23;7.25;;;;;;;4.14;47.13;102028.50;5010209;28;20037;-70
2022/03/09 07:32:41;;;;;;;14.55;6.57;;;;;;;4.44;46.65;102025.97;5009979;28;20038;-70
2022/03/09 07:35:08;;;;;;;15.20;6.47;;;;;;;4.73;45.63;102030.38;5011150;28;20037;-70
2022/03/09 07:37:34;;;;;;;19.30;7.18;;;;;;;4.81;45.41;102039.31;5009105;28;20036;-70
2022/03/09 07:39:59;;;;;;;18.48;9.02;;;;;;;4.76;45.86;102046.44;5029091;28;20037;-70
2022/03/09 07:42:25;;;;;;;13.13;6.82;;;;;;;4.85;45.17;102051.06;5026862;28;20049;-70
2022/03/09 07:44:51;;;;;;;15.32;7.50;;;;;;;4.93;45.04;102045.47;5023354;28;20034;-70
2022/03/09 07:47:17;;;;;;;18.35;7.50;;;;;;;5.19;44.76;102043.97;5026457;28;20025;-70
2022/03/09 07:49:43;;;;;;;14.35;8.30;;;;;;;5.38;44.03;102045.44;5010736;28;20038;-71
2022/03/09 07:52:08;;;;;;;19.35;7.40;;;;;;;5.57;43.60;102042.59;5030738;28;20021;-70
2022/03/09 07:54:34;;;;;;;17.65;7.55;;;;;;;5.71;43.14;102041.72;5028979;28;20041;-71
2022/03/09 07:59:27;;;;;;;17.45;7.63;;;;;;;5.57;43.27;102055.44;4963915;28;20054;-71
2022/03/09 08:01:53;;;;;;;15.82;8.38;;;;;;;5.59;43.11;102056.19;4982579;28;20034;-71
2022/03/09 08:04:23;;;;;;;15.27;7.50;;;;;;;5.76;43.19;102052.59;4998119;28;20038;-70
2022/03/09 08:06:50;;;;;;;22.75;8.30;;;;;;;5.89;42.49;102058.63;4972904;28;20452;-71
2022/03/09 08:09:16;;;;;;;14.18;7.10;;;;;;;5.95;42.39;102063.47;5008700;28;20049;-71
2022/03/09 08:11:43;;;;;;;16.88;6.88;;;;;;;6.07;42.47;102069.59;4996305;28;20053;-71
2022/03/09 08:14:09;;;;;;;15.70;7.80;;;;;;;6.57;41.52;102073.28;5009170;28;20033;-71
2022/03/09 08:16:35;;;;;;;23.98;7.70;;;;;;;6.30;41.69;102068.13;4994475;28;20037;-71
2022/03/09 08:19:00;;;;;;;17.08;7.63;;;;;;;6.39;41.96;102069.31;5009282;28;20038;-71
2022/03/09 08:21:26;;;;;;;15.45;7.53;;;;;;;6.41;41.91;102067.47;5016364;28;20068;-71
2022/03/09 08:23:51;;;;;;;14.65;7.72;;;;;;;7.01;40.73;102069.56;5005742;28;20447;-70
2022/03/09 08:26:17;;;;;;;16.35;8.20;;;;;;;6.91;41.45;102065.94;5010162;28;20084;-71
2022/03/09 08:28:42;;;;;;;14.43;7.20;;;;;;;6.76;41.18;102060.03;4992920;28;20041;-71
2022/03/09 08:31:08;;;;;;;16.15;6.88;;;;;;;6.82;40.85;102067.38;5012139;28;20119;-71
2022/03/09 08:33:34;;;;;;;16.50;7.60;;;;;;;7.09;41.00;102066.47;5014284;28;20067;-70
2022/03/09 08:36:00;;;;;;;17.88;7.45;;;;;;;7.17;40.87;102071.09;5008344;28;20084;-70
2022/03/09 08:38:26;;;;;;;16.45;7.07;;;;;;;7.22;40.22;102071.63;5009171;28;20073;-71
2022/03/09 08:40:51;;;;;;;16.70;7.32;;;;;;;7.47;39.66;102078.53;4989321;28;20041;-71
2022/03/09 08:43:17;;;;;;;16.48;8.02;;;;;;;7.56;39.96;102072.75;5007393;28;20030;-70
2022/03/09 08:45:44;;;;;;;20.83;7.28;;;;;;;8.09;39.53;102076.88;5009801;28;20427;-70
2022/03/09 08:48:10;;;;;;;17.08;7.97;;;;;;;7.98;39.17;102075.84;5013274;28;20034;-70
2022/03/09 08:50:36;;;;;;;19.27;8.50;;;;;;;8.56;38.80;102081.22;4972681;28;20399;-71
2022/03/09 08:53:03;;;;;;;13.30;6.93;;;;;;;8.45;38.42;102070.84;5007493;28;20026;-71
2022/03/09 08:55:29;;;;;;;13.18;7.40;;;;;;;8.15;38.26;102079.81;4970815;28;20142;-70
2022/03/09 08:57:55;;;;;;;25.30;9.50;;;;;;;8.35;38.27;102082.75;5007465;28;20479;-70
2022/03/09 09:00:20;;;;;;;17.40;7.65;;;;;;;8.33;38.17;102082.06;4990363;28;20091;-70
2022/03/09 09:02:46;;;;;;;19.80;8.38;;;;;;;8.74;38.06;102080.84;4995872;28;20026;-70
2022/03/09 09:05:11;;;;;;;17.40;7.18;;;;;;;8.38;37.76;102078.19;5008587;28;20037;-70
2022/03/09 09:07:37;;;;;;;14.38;7.20;;;;;;;8.25;38.22;102089.50;5009852;28;20018;-70
2022/03/09 09:10:03;;;;;;;15.82;7.72;;;;;;;8.14;38.07;102080.78;5007499;28;20029;-70
2022/03/09 09:12:30;;;;;;;14.63;7.60;;;;;;;8.18;38.61;102089.13;5006082;28;20576;-70
2022/03/09 09:14:56;;;;;;;14.63;7.63;;;;;;;8.38;38.52;102083.38;5004666;28;20037;-70
2022/03/09 09:17:21;;;;;;;18.20;8.10;;;;;;;8.01;39.08;102069.66;4990324;28;20033;-70
2022/03/09 09:19:47;;;;;;;20.67;7.45;;;;;;;7.87;38.76;102073.19;5006267;28;20033;-70
2022/03/09 09:22:12;;;;;;;14.23;7.22;;;;;;;8.07;39.17;102066.63;5006749;28;20029;-70
2022/03/09 09:24:38;;;;;;;14.32;7.55;;;;;;;8.24;39.29;102072.38;5006842;28;20081;-70
2022/03/09 09:27:03;;;;;;;22.40;8.95;;;;;;;8.18;38.95;102069.28;5010190;28;20484;-70
2022/03/09 09:29:30;;;;;;;17.92;8.02;;;;;;;7.98;38.73;102064.69;5008177;28;20040;-70
2022/03/09 09:31:55;;;;;;;16.95;8.20;;;;;;;7.75;38.94;102066.31;5011866;28;20468;-70
2022/03/09 09:34:21;;;;;;;18.25;8.43;;;;;;;7.70;39.77;102069.19;4988579;28;20030;-70
2022/03/09 09:36:47;;;;;;;18.75;8.00;;;;;;;8.10;40.43;102065.59;5008470;28;20439;-70
2022/03/09 09:39:15;;;;;;;18.00;8.68;;;;;;;8.45;41.54;102075.19;4995886;28;20036;-70
2022/03/09 09:41:46;;;;;;;17.70;9.02;;;;;;;8.23;39.17;102071.56;5013074;28;20068;-70
2022/03/09 09:44:12;;;;;;;20.83;8.80;;;;;;;7.95;39.20;102064.94;5010213;28;20065;-70
2022/03/09 09:46:39;;;;;;;16.70;9.15;;;;;;;8.01;39.89;102067.06;5011441;28;20037;-70
2022/03/09 09:49:13;;;;;;;23.02;9.05;;;;;;;8.01;39.93;102066.25;5009856;28;20120;-70
2022/03/09 09:51:44;;;;;;;17.88;8.25;;;;;;;8.27;39.67;102061.78;5010842;28;20479;-70
2022/03/09 09:54:10;;;;;;;18.13;8.27;;;;;;;8.28;39.67;102056.53;5008217;28;20034;-71
2022/03/09 09:56:40;;;;;;;18.75;7.95;;;;;;;8.18;40.44;102051.19;5008091;28;20041;-70
2022/03/09 09:59:07;;;;;;;16.67;8.77;;;;;;;8.23;40.29;102057.78;5007119;28;20030;-70
2022/03/09 10:01:32;;;;;;;18.15;8.43;;;;;;;8.38;40.42;102060.13;5007692;28;20095;-70
2022/03/09 10:03:58;;;;;;;20.73;8.32;;;;;;;8.22;40.79;102059.56;5006515;28;20038;-70
2022/03/09 10:06:24;;;;;;;17.58;8.63;;;;;;;8.26;40.42;102058.41;5007004;28;20037;-70
2022/03/09 10:09:08;;;;;;;19.70;9.30;;;;;;;8.24;40.06;102056.88;5017949;28;20034;-70
2022/03/09 10:11:50;;;;;;;14.43;8.35;;;;;;;8.43;40.27;102058.97;5004621;28;20034;-70
2022/03/09 10:14:37;;;;;;;16.00;8.52;;;;;;;8.45;40.06;102057.91;5028873;28;20403;-70
2022/03/09 10:17:05;;;;;;;29.48;9.68;;;;;;;8.54;40.38;102049.50;5027872;28;20489;-70
2022/03/09 10:19:33;;;;;;;20.00;9.63;;;;;;;8.52;39.52;102061.72;5012633;28;20550;-70
2022/03/09 10:22:19;;;;;;;18.15;9.60;;;;;;;8.49;39.89;102050.78;4988135;28;20026;-70
2022/03/09 10:24:44;;;;;;;20.10;9.68;;;;;;;8.57;40.07;102061.41;5007749;28;20575;-70
2022/03/09 10:27:10;;;;;;;20.10;9.70;;;;;;;8.74;40.37;102055.81;5010922;28;20042;-70
2022/03/09 10:29:36;;;;;;;18.98;9.63;;;;;;;8.84;39.92;102060.31;5007841;28;20041;-70
2022/03/09 10:32:02;;;;;;;20.20;9.30;;;;;;;8.94;40.20;102061.25;5010559;28;20570;-71
2022/03/09 10:34:29;;;;;;;19.75;8.95;;;;;;;9.04;40.09;102054.47;5007729;28;20041;-70
2022/03/09 10:37:04;;;;;;;20.23;9.57;;;;;;;8.99;39.43;102055.75;4990656;28;20022;-71
2022/03/09 10:39:36;;;;;;;20.52;9.73;;;;;;;9.03;40.21;102055.38;4992264;28;20033;-71
2022/03/09 10:42:03;;;;;;;20.02;9.35;;;;;;;9.02;39.31;102048.56;5010771;28;20397;-70
2022/03/09 10:44:45;;;;;;;24.45;10.52;;;;;;;8.94;39.98;102043.97;5007079;28;20381;-70
2022/03/09 10:47:27;;;;;;;23.70;10.45;;;;;;;9.07;39.23;102043.88;4989611;28;20033;-70
2022/03/09 10:49:52;;;;;;;24.15;10.57;;;;;;;9.02;39.77;102051.13;5002471;28;20040;-70
2022/03/09 10:52:18;;;;;;;26.05;10.32;;;;;;;9.14;39.53;102054.59;4987396;28;20030;-70
2022/03/09 10:54:43;;;;;;;21.10;9.77;;;;;;;9.20;39.44;102051.53;4990863;28;20495;-70
2022/03/09 10:57:11;;;;;;;20.17;10.10;;;;;;;9.22;39.52;102052.25;4987894;28;20025;-71
2022/03/09 10:59:51;;;;;;;21.45;9.88;;;;;;;9.27;38.74;102050.13;5006948;28;20034;-70
2022/03/09 11:02:19;;;;;;;21.58;10.15;;;;;;;9.39;39.40;102043.19;5009363;28;20543;-70
2022/03/09 11:05:08;;;;;;;20.50;10.07;;;;;;;9.51;39.29;102042.25;5007672;28;20034;-71
2022/03/09 11:07:35;;;;;;;18.83;10.05;;;;;;;9.65;39.64;102046.34;5007132;28;20038;-70
2022/03/09 11:10:00;;;;;;;22.08;10.18;;;;;;;9.67;39.15;102043.66;4990520;28;20026;-71
2022/03/09 11:12:27;;;;;;;20.77;11.10;;;;;;;9.72;38.76;102042.34;5006684;28;20416;-70
2022/03/09 11:14:53;;;;;;;22.05;10.02;;;;;;;9.86;38.94;102041.25;5008937;28;20477;-70
2022/03/09 11:17:25;;;;;;;20.15;11.05;;;;;;;9.85;37.78;102037.03;5009407;28;20060;-70
2022/03/09 11:19:50;;;;;;;23.10;10.63;;;;;;;9.89;37.98;102028.06;5010766;28;20042;-71
2022/03/09 11:22:16;;;;;;;22.92;10.82;;;;;;;9.82;37.38;102045.03;5013553;28;20033;-71